Aeroporto :
LOGIN :

Iscrizione | Disclaimer

   EN    FR    IT 

 










Sommario :    VFR   VFR Marginale   IFR   IFR Intensivo   IFR Molto Intensivo
Visibilità : 
Base nubi : 
>= 8 km
>= 3000ft
5 / 8 km
1000 / 3000 ft
1500m / 5 km
500 / 1000 ft
800 / 1500m
200 / 500 ft
< 800m
< 200 ft
Simboli :   Temporali  Nebbia  Neve Forte  Precipitazioni Forti  Vento > 20 kt
SIGMETs :   Varie  Temporali  Ghiacco  Turbolenza  Onda orograficha  Ceneri Vulcaniche






- Altitudine del aeroporto : 274 ft
- Codice IATA : PUY


LDPL - Pula

ULTIMO METAR :
  • 191900Z 05008KT CAVOK 06/M02 Q1032 NOSIG

METARs OBSOLETI :
  • 191830Z 06008KT CAVOK 06/M03 Q1031 NOSIG
  • 191800Z 05008KT CAVOK 06/M03 Q1031 NOSIG
  • 191730Z 05006KT CAVOK 06/M02 Q1030 NOSIG
  • 191700Z 04007KT CAVOK 07/M02 Q1030 NOSIG
  • 191630Z 05006KT CAVOK 07/M02 Q1030 NOSIG

TAF TAF LDPL
Valido dal 19 a 18 ore il 20 a 18 ore UTC


191725Z 1918/2018 07012KT 9999 FEW030 TX09/2012Z TN04/2005Z
PROB40
TEMPO 1918/1923 07006KT
PROB30
TEMPO 2004/2018 07015G25KT



MetMap, La meteo Aeronautica in un colpo d'occhio ! - Copyright ORBIFLY Dicembre 2007 - Disclaimer

ORBIFLY MET'MAP TEAM :

Programmazione e sviluppo : Alexandra Zaïnal
Concezione : Baudouin d'Aumeries
Aiuto per la programmazione : Marc-Olivier Méhu
Supporto tecnico e logistico : Manuel Goepfert
Aiuto per la traduzione : Arnaldo La Scala

Contatto : metmap@orbifly.com




FONTI E CREDITI :

   NOAA